createdAt,value
2017-10-28T14:28:42.891Z,22.87
2017-10-28T14:31:10.323Z,21.10
2017-10-28T14:33:38.629Z,29.23
2017-10-28T14:36:06.601Z,25.30
2017-10-28T14:38:34.037Z,26.00
2017-10-28T14:41:02.355Z,22.03
2017-10-28T14:43:30.821Z,21.83
2017-10-28T14:45:58.667Z,23.90
2017-10-28T14:48:26.865Z,22.37
2017-10-28T14:50:55.122Z,23.20
2017-10-28T14:53:22.955Z,18.63
2017-10-28T14:55:51.894Z,25.42
2017-10-28T14:58:19.461Z,30.17
2017-10-28T15:00:46.894Z,29.43
2017-10-28T15:03:14.359Z,25.20
2017-10-28T15:05:41.929Z,22.90
2017-10-28T15:08:09.374Z,33.80
2017-10-28T15:10:37.682Z,24.67
2017-10-28T15:13:05.521Z,28.47
2017-10-28T15:15:33.710Z,31.37
2017-10-28T15:18:01.149Z,27.83
2017-10-28T15:20:28.853Z,28.43
2017-10-28T15:22:56.284Z,32.33
2017-10-28T15:25:23.728Z,22.27
2017-10-28T15:27:52.005Z,28.63
2017-10-28T15:30:19.846Z,34.33
2017-10-28T15:32:47.673Z,25.60
2017-10-28T15:35:15.195Z,26.30
2017-10-28T15:37:42.681Z,27.90
2017-10-28T15:40:10.132Z,34.20
2017-10-28T15:42:38.099Z,31.00
2017-10-28T15:45:06.376Z,35.07
2017-10-28T15:47:34.214Z,40.67
2017-10-28T15:50:01.745Z,34.10
2017-10-28T15:52:29.954Z,38.47
2017-10-28T15:54:57.419Z,31.13
2017-10-28T15:57:24.884Z,36.83
2017-10-28T15:59:52.323Z,35.83
2017-10-28T16:02:20.654Z,34.77
2017-10-28T16:04:48.681Z,29.77
2017-10-28T16:07:16.958Z,35.70
2017-10-28T16:09:45.239Z,32.47
2017-10-28T16:12:13.082Z,33.73
2017-10-28T16:14:40.561Z,32.93
2017-10-28T16:17:08.020Z,41.40
2017-10-28T16:19:35.453Z,35.47
2017-10-28T16:22:03.345Z,42.33
2017-10-28T16:24:31.185Z,40.73
2017-10-28T16:26:59.706Z,37.17
2017-10-28T16:29:27.554Z,29.87
2017-10-28T16:31:55.829Z,37.90
2017-10-28T16:34:24.039Z,34.80
2017-10-28T16:36:52.233Z,23.90
2017-10-28T16:39:20.449Z,38.17
2017-10-28T16:41:48.657Z,34.97
2017-10-28T16:44:16.862Z,32.23
2017-10-28T16:46:44.689Z,38.73
2017-10-28T16:49:12.332Z,41.25
2017-10-28T16:51:39.800Z,34.03
2017-10-28T16:54:07.250Z,32.63
2017-10-28T16:56:34.805Z,32.60
2017-10-28T16:59:02.674Z,31.33
2017-10-28T17:01:30.127Z,32.50
2017-10-28T17:03:57.637Z,31.47
2017-10-28T17:06:25.854Z,36.97
2017-10-28T17:08:54.064Z,34.00
2017-10-28T17:11:22.011Z,35.53
2017-10-28T17:13:49.441Z,42.60
2017-10-28T17:16:17.645Z,37.90
2017-10-28T17:18:45.860Z,34.07
2017-10-28T17:21:14.069Z,40.33
2017-10-28T17:23:41.543Z,35.73
2017-10-28T17:26:10.021Z,28.40
2017-10-28T17:28:38.223Z,36.87
2017-10-28T17:31:06.077Z,37.87
2017-10-28T17:33:33.630Z,36.77
2017-10-28T17:36:01.466Z,30.57
2017-10-28T17:38:28.919Z,28.03
2017-10-28T17:40:57.233Z,34.07
2017-10-28T17:43:25.437Z,32.87
2017-10-28T17:45:52.878Z,36.27
2017-10-28T17:48:20.421Z,25.73
2017-10-28T17:50:48.692Z,30.90
2017-10-28T17:53:16.897Z,27.43
2017-10-28T17:55:45.869Z,31.03
2017-10-28T17:58:13.309Z,27.53
2017-10-28T18:00:41.132Z,29.97
2017-10-28T18:03:09.465Z,29.00
2017-10-28T18:05:36.908Z,20.97
2017-10-28T18:08:05.197Z,30.30
2017-10-28T18:10:32.641Z,33.90
2017-10-28T18:13:00.929Z,28.47
2017-10-28T18:15:28.370Z,29.13
2017-10-28T18:17:56.232Z,28.93
2017-10-28T18:20:24.128Z,33.07
2017-10-28T18:22:52.001Z,28.03
2017-10-28T18:25:19.533Z,28.43
2017-10-28T18:27:46.965Z,28.93
2017-10-28T18:30:14.411Z,36.93
2017-10-28T18:32:42.235Z,32.37
2017-10-28T18:35:10.093Z,30.23
2017-10-28T18:37:38.285Z,29.70
2017-10-28T18:40:06.586Z,33.07
2017-10-28T18:42:34.807Z,20.33
2017-10-28T18:45:03.383Z,25.53
2017-10-28T18:47:31.361Z,27.47
2017-10-28T18:49:58.817Z,19.40
2017-10-28T18:52:27.020Z,21.63
2017-10-28T18:54:55.229Z,19.57
2017-10-28T18:57:23.433Z,24.67
2017-10-28T18:59:51.267Z,27.57
2017-10-28T19:02:19.794Z,24.10
2017-10-28T19:04:47.991Z,22.13
2017-10-28T19:07:15.438Z,20.57
2017-10-28T19:09:42.892Z,26.10
2017-10-28T19:12:10.341Z,25.10
2017-10-28T19:14:37.813Z,25.63
2017-10-28T19:17:06.357Z,23.37
2017-10-28T19:19:34.187Z,24.50
2017-10-28T19:22:02.394Z,18.50
2017-10-28T19:24:29.869Z,24.33
2017-10-28T19:26:57.701Z,24.13
2017-10-28T19:29:25.528Z,20.87
2017-10-28T19:31:53.474Z,21.33
2017-10-28T19:34:21.669Z,20.83
2017-10-28T19:36:49.105Z,24.43
2017-10-28T19:39:17.034Z,17.57
2017-10-28T19:41:44.866Z,17.43
2017-10-28T19:44:12.417Z,18.33
2017-10-28T19:46:39.965Z,22.37
2017-10-28T19:49:07.422Z,20.97
2017-10-28T19:51:34.853Z,22.47
2017-10-28T19:54:02.874Z,19.13
2017-10-28T19:56:31.069Z,16.33
2017-10-28T19:58:59.487Z,14.63
2017-10-28T20:01:27.471Z,25.03
2017-10-28T20:03:55.665Z,17.53
2017-10-28T20:06:23.872Z,15.73
2017-10-28T20:08:52.106Z,23.70
2017-10-28T20:11:20.304Z,20.47
2017-10-28T20:13:48.549Z,23.07
2017-10-28T20:16:16.857Z,17.90
2017-10-28T20:18:46.288Z,18.37
2017-10-28T20:21:13.737Z,20.37
2017-10-28T20:23:41.954Z,18.03
2017-10-28T20:26:09.389Z,15.30
2017-10-28T20:28:37.689Z,20.50
2017-10-28T20:31:05.980Z,20.30
2017-10-28T20:33:33.837Z,15.53
2017-10-28T20:36:01.333Z,17.57
2017-10-28T20:38:29.261Z,17.53
2017-10-28T20:40:57.921Z,14.87
2017-10-28T20:43:25.353Z,20.40
2017-10-28T20:45:53.695Z,14.43
2017-10-28T20:48:21.141Z,14.57
2017-10-28T20:50:48.583Z,22.20
2017-10-28T20:53:16.573Z,15.17
2017-10-28T20:55:44.411Z,12.90
2017-10-28T20:58:11.893Z,24.27
2017-10-28T21:00:39.461Z,18.27
2017-10-28T21:03:06.910Z,18.60
2017-10-28T21:05:34.361Z,17.17
2017-10-28T21:08:02.758Z,13.37
2017-10-28T21:10:30.609Z,17.50
2017-10-28T21:12:58.885Z,16.03
2017-10-28T21:15:27.100Z,23.57
2017-10-28T21:17:55.297Z,16.17
2017-10-28T21:20:23.121Z,17.83
2017-10-28T21:22:50.775Z,15.50
2017-10-28T21:25:18.221Z,16.67
2017-10-28T21:27:45.661Z,16.23
2017-10-28T21:30:13.112Z,22.60
2017-10-28T21:32:41.310Z,17.37
2017-10-28T21:35:09.509Z,16.87
2017-10-28T21:37:38.291Z,20.40
2017-10-28T21:40:06.966Z,16.13
2017-10-28T21:42:34.428Z,21.40
2017-10-28T21:45:02.993Z,14.87
2017-10-28T21:47:30.462Z,16.63
2017-10-28T21:49:58.281Z,18.37
2017-10-28T21:52:26.489Z,20.37
2017-10-28T21:54:53.916Z,18.30
2017-10-28T21:57:22.120Z,15.63
2017-10-28T21:59:49.691Z,13.47
2017-10-28T22:02:17.141Z,18.63
2017-10-28T22:04:44.966Z,19.47
2017-10-28T22:07:12.999Z,25.30
2017-10-28T22:09:40.832Z,14.27
2017-10-28T22:12:08.645Z,19.00
2017-10-28T22:14:36.088Z,16.53
2017-10-28T22:17:03.632Z,17.77
2017-10-28T22:19:31.084Z,16.30
2017-10-28T22:21:58.901Z,20.53
2017-10-28T22:24:27.129Z,17.73
2017-10-28T22:26:55.325Z,20.67
2017-10-28T22:29:22.961Z,20.03
2017-10-28T22:31:50.845Z,22.60
2017-10-28T22:34:18.289Z,22.57
2017-10-28T22:36:45.841Z,19.47
2017-10-28T22:39:13.669Z,15.40
2017-10-28T22:41:41.860Z,19.60
2017-10-28T22:44:09.858Z,19.97
2017-10-28T22:46:37.854Z,24.63
2017-10-28T22:49:05.687Z,19.77
2017-10-28T22:51:33.126Z,25.93
2017-10-28T22:54:00.604Z,17.23
2017-10-28T22:56:28.049Z,28.57
2017-10-28T22:58:55.626Z,23.40
2017-10-28T23:01:23.825Z,25.40
2017-10-28T23:03:52.020Z,22.00
2017-10-28T23:06:19.946Z,21.93
2017-10-28T23:08:47.397Z,28.93
2017-10-28T23:11:15.273Z,25.07
2017-10-28T23:13:43.640Z,21.27
2017-10-28T23:16:11.466Z,28.67
2017-10-28T23:18:39.704Z,27.57
2017-10-28T23:21:07.141Z,17.13
2017-10-28T23:23:34.578Z,29.77
2017-10-28T23:26:02.465Z,29.30
2017-10-28T23:28:29.904Z,21.53
2017-10-28T23:30:57.329Z,19.43
2017-10-28T23:33:25.244Z,26.17
2017-10-28T23:35:52.701Z,27.17
2017-10-28T23:38:20.583Z,25.73
2017-10-28T23:40:48.769Z,26.33
2017-10-28T23:43:17.021Z,29.23
2017-10-28T23:45:46.645Z,25.70
2017-10-28T23:48:14.185Z,23.87
2017-10-28T23:50:41.625Z,23.87
2017-10-28T23:53:09.446Z,22.77
2017-10-28T23:55:37.725Z,28.23
2017-10-28T23:58:06.072Z,24.93
